Lublin Radawiec, Poland
Current Conditions -  °F | °C
As of 8:00 PM on Saturday 25 Oct 2014 (Local Time) from EPLB Reporting Station
Clear Clear  
Wind Chill: 28°   Ceiling: Unl
Heat Index: 36°   Visibility: 6mi
Dew Point: 21°   Wind: 10mph
Humidity: 56%   Direction: 140°SE
Pressure: 30.36"   Gusts: NA
Location:  51.2°N, 22.39°E
Report Text: EPLB 251800Z 14009KT CAVOK 02/M06 Q1028
Loading
Personal Weather Stations






























Interactive Weather Map
Tropical Storm Tracking
New forecast layout! Learn more

10-Day Weather Forecast

Advertisements
Track Severe Weather on mobile